Weather at Bükülmez Borderpost Helipad

Public forecast

Using degrees Celsius for public forecast. Weather courtesy of forecast.io.

Closest aviation weather report (METAR) to Bükülmez Borderpost Helipad

Closest report is Hatay Airport, 18.3 nm (33.9 km) W.

2024/05/20 20:50 (retrieved 40 minutes ago)

LTDA 202050Z 22014KT CAVOK 22/18 Q1008 NOSIG

Closest aviation forecast (TAF) to Bükülmez Borderpost Helipad

Closest forecast is Aleppo International Airport, 28.8 nm (53.3 km) ESE.

2024/05/20 18:48 (retrieved 3 hours ago)

TAF OSAP 201700Z 2018/2118 03015KT CAVOK TEMPO 2110/2116 33012KT 9999 SCT030